Time;durP1;ratioP1;P1;durP2;ratioP2;P2;SDS_P1;SDS_P2;PMS_P1;PMS_P2;Temp;Humidity;BMP_temperature;BMP_pressure;BME280_temperature;BME280_humidity;BME280_pressure;Samples;Min_cycle;Max_cycle;Signal;HPM_P1;HPM_P2
2022/05/14 00:01:04;;;;;;;2.25;1.38;;;14.20;95.30;;;;;;4932861;28;20427;-49
2022/05/14 00:03:32;;;;;;;9.35;2.00;;;14.10;95.10;;;;;;4932927;28;20036;-48
2022/05/14 00:06:03;;;;;;;1.58;1.40;;;14.00;95.80;;;;;;4932742;28;20024;-47
2022/05/14 00:08:30;;;;;;;6.22;1.55;;;14.00;96.40;;;;;;4932516;28;20023;-47
2022/05/14 00:13:40;;;;;;;4.65;1.50;;;14.00;96.40;;;;;;4932489;29;20051;-49
2022/05/14 00:16:06;;;;;;;3.45;1.27;;;14.10;96.40;;;;;;4932747;28;20040;-46
2022/05/14 00:18:32;;;;;;;6.50;1.88;;;14.10;96.50;;;;;;4932218;29;20031;-46
2022/05/14 00:20:59;;;;;;;3.45;1.40;;;14.20;96.30;;;;;;4932999;28;20031;-50
2022/05/14 00:23:25;;;;;;;3.42;1.50;;;14.20;96.50;;;;;;4932445;29;20020;-48
2022/05/14 00:25:51;;;;;;;4.57;1.88;;;14.10;96.40;;;;;;4932442;28;20388;-48
2022/05/14 00:28:17;;;;;;;3.55;1.33;;;14.00;96.60;;;;;;4931973;28;20050;-48
2022/05/14 00:30:42;;;;;;;6.78;1.85;;;14.00;97.00;;;;;;4932200;28;20039;-50
2022/05/14 00:33:08;;;;;;;5.80;1.10;;;14.00;96.90;;;;;;4932491;28;20450;-45
2022/05/14 00:35:34;;;;;;;5.15;1.10;;;13.90;97.10;;;;;;4931999;28;20024;-46
2022/05/14 00:38:01;;;;;;;3.28;1.77;;;13.80;97.50;;;;;;4932028;28;20027;-50
2022/05/14 00:42:54;;;;;;;2.17;1.65;;;13.90;97.50;;;;;;5006745;23;20157;-45
2022/05/14 00:45:21;;;;;;;4.32;1.10;;;14.00;97.30;;;;;;4992212;28;20097;-48
2022/05/14 00:47:50;;;;;;;3.22;1.10;;;14.00;97.30;;;;;;4992507;28;20383;-49
2022/05/14 00:50:24;;;;;;;2.58;1.42;;;14.10;97.10;;;;;;4992309;28;20405;-49
2022/05/14 00:52:53;;;;;;;4.25;1.38;;;14.10;97.30;;;;;;4992780;28;20501;-47
2022/05/14 00:55:19;;;;;;;5.63;2.58;;;14.10;97.40;;;;;;4993086;28;20110;-47
2022/05/14 00:57:46;;;;;;;4.03;1.75;;;14.20;97.80;;;;;;4993035;28;20034;-46
2022/05/14 01:00:17;;;;;;;8.95;2.40;;;14.20;97.70;;;;;;4993047;28;20046;-46
2022/05/14 01:02:43;;;;;;;3.30;1.90;;;14.20;97.80;;;;;;4992835;28;20409;-48
2022/05/14 01:05:10;;;;;;;5.07;1.75;;;14.20;97.80;;;;;;4975374;28;20022;-51
2022/05/14 01:07:38;;;;;;;4.38;1.73;;;14.20;98.00;;;;;;4992680;28;20030;-50
2022/05/14 01:10:06;;;;;;;14.27;3.05;;;14.20;98.40;;;;;;4992849;28;20405;-46
2022/05/14 01:12:33;;;;;;;7.25;1.75;;;14.10;98.90;;;;;;4993062;28;20031;-47
2022/05/14 01:15:14;;;;;;;4.90;1.77;;;14.10;99.10;;;;;;4975425;28;20437;-48
2022/05/14 01:17:40;;;;;;;4.07;1.55;;;14.00;99.40;;;;;;4992155;28;20026;-47
2022/05/14 01:20:06;;;;;;;5.25;1.90;;;13.90;99.60;;;;;;4992663;28;20386;-48
2022/05/14 01:22:48;;;;;;;4.88;2.50;;;13.90;99.60;;;;;;4992630;28;20023;-49
2022/05/14 01:28:02;;;;;;;3.80;2.35;;;13.90;99.70;;;;;;4992357;28;20478;-47
2022/05/14 01:30:29;;;;;;;8.38;2.95;;;13.80;99.60;;;;;;4975005;28;20058;-48
2022/05/14 01:33:07;;;;;;;8.32;2.35;;;13.70;99.90;;;;;;4992692;28;20438;-48
2022/05/14 01:35:35;;;;;;;7.07;2.00;;;13.60;99.90;;;;;;4992327;28;20026;-44
2022/05/14 01:38:01;;;;;;;6.25;2.53;;;13.60;99.90;;;;;;4991046;28;20464;-47
2022/05/14 01:40:28;;;;;;;10.00;2.50;;;13.50;99.90;;;;;;4992442;28;20022;-47
2022/05/14 01:42:54;;;;;;;3.97;2.28;;;13.40;99.90;;;;;;4994782;28;20030;-46
2022/05/14 01:45:19;;;;;;;6.85;2.22;;;13.40;99.90;;;;;;4996524;28;20050;-47
2022/05/14 01:47:45;;;;;;;7.22;2.17;;;13.40;99.90;;;;;;4996210;28;20031;-46
2022/05/14 01:50:10;;;;;;;2.92;1.90;;;13.40;99.90;;;;;;4996111;28;20030;-46
2022/05/14 01:52:36;;;;;;;7.68;2.53;;;13.40;99.90;;;;;;4996848;28;20035;-48
2022/05/14 01:55:01;;;;;;;3.22;2.22;;;13.40;99.90;;;;;;4996556;28;20030;-47
2022/05/14 01:57:27;;;;;;;3.83;2.15;;;13.40;99.90;;;;;;4978476;28;20482;-47
2022/05/14 01:59:52;;;;;;;4.85;2.00;;;13.40;99.90;;;;;;4995962;28;20030;-46
2022/05/14 02:02:18;;;;;;;8.45;2.22;;;13.40;99.90;;;;;;4995874;28;20022;-46
2022/05/14 02:04:43;;;;;;;2.72;2.25;;;13.40;99.90;;;;;;4996087;28;20023;-46
2022/05/14 02:07:09;;;;;;;6.45;2.58;;;13.40;99.90;;;;;;4995297;28;20026;-47
2022/05/14 02:09:34;;;;;;;6.90;1.92;;;13.40;99.90;;;;;;4995530;28;20034;-48
2022/05/14 02:12:01;;;;;;;3.15;1.83;;;13.40;99.90;;;;;;4995445;28;20025;-49
2022/05/14 02:14:27;;;;;;;4.55;2.60;;;13.40;99.90;;;;;;4995459;28;20398;-46
2022/05/14 02:16:52;;;;;;;3.88;2.13;;;13.40;99.90;;;;;;4995013;28;20030;-44
2022/05/14 02:19:18;;;;;;;4.97;2.20;;;13.40;99.90;;;;;;4995319;28;20383;-49
2022/05/14 02:21:44;;;;;;;4.80;2.05;;;13.40;99.90;;;;;;4995382;28;20034;-47
2022/05/14 02:24:10;;;;;;;4.60;2.67;;;13.40;99.90;;;;;;4995567;28;20041;-50
2022/05/14 02:26:36;;;;;;;2.75;2.08;;;13.40;99.90;;;;;;4995446;28;20490;-47
2022/05/14 02:29:01;;;;;;;5.57;2.45;;;13.40;99.90;;;;;;4995013;28;20493;-45
2022/05/14 02:31:27;;;;;;;6.95;2.22;;;13.30;99.90;;;;;;4995025;28;20056;-47
2022/05/14 02:33:53;;;;;;;7.40;2.50;;;13.30;99.90;;;;;;4995339;28;20069;-50
2022/05/14 02:36:19;;;;;;;4.63;2.53;;;13.20;99.90;;;;;;4995412;28;20065;-47
2022/05/14 02:38:45;;;;;;;6.13;2.70;;;13.20;99.90;;;;;;4994746;28;20109;-51
2022/05/14 02:41:12;;;;;;;4.28;2.30;;;13.20;99.90;;;;;;4994807;28;20038;-50
2022/05/14 02:43:37;;;;;;;4.22;2.50;;;13.30;99.90;;;;;;4993761;28;20410;-48
2022/05/14 02:46:04;;;;;;;3.55;1.95;;;13.20;99.90;;;;;;4994967;28;20022;-48
2022/05/14 02:48:31;;;;;;;5.35;2.30;;;13.10;99.90;;;;;;4994367;28;20031;-50
2022/05/14 02:50:57;;;;;;;8.75;3.03;;;13.00;99.90;;;;;;4994770;28;20019;-45
2022/05/14 02:53:23;;;;;;;9.98;2.70;;;12.90;99.90;;;;;;4994754;28;20030;-45
2022/05/14 02:55:48;;;;;;;12.90;3.22;;;12.90;99.90;;;;;;4977367;28;20034;-45
2022/05/14 02:59:06;;;;;;;8.52;3.10;;;12.90;99.90;;;;;;4977331;28;20501;-46
2022/05/14 03:00:59;;;;;;;8.20;2.80;;;12.80;99.90;;;;;;4994533;28;20027;-50
2022/05/14 03:03:26;;;;;;;6.85;2.70;;;12.70;99.90;;;;;;4994596;28;20415;-45
2022/05/14 03:05:51;;;;;;;5.75;2.00;;;12.60;99.90;;;;;;4994498;28;20390;-49
2022/05/14 03:08:17;;;;;;;5.40;2.83;;;12.60;99.90;;;;;;4994376;28;20026;-46
2022/05/14 03:10:42;;;;;;;8.05;2.40;;;12.50;99.90;;;;;;4994336;28;20069;-46
2022/05/14 03:13:08;;;;;;;6.03;2.30;;;12.50;99.90;;;;;;4994557;28;20030;-51
2022/05/14 03:15:34;;;;;;;3.38;2.45;;;12.50;99.90;;;;;;4976770;28;20035;-49
2022/05/14 03:18:00;;;;;;;6.32;1.98;;;12.60;99.90;;;;;;4994037;28;20084;-46
2022/05/14 03:20:25;;;;;;;4.45;2.53;;;12.50;99.90;;;;;;4976817;28;20109;-44
2022/05/14 03:22:52;;;;;;;6.43;2.47;;;12.50;99.90;;;;;;4994508;28;20033;-48
2022/05/14 03:25:17;;;;;;;8.27;2.70;;;12.50;99.90;;;;;;4994209;28;20501;-48
2022/05/14 03:27:43;;;;;;;10.20;2.95;;;12.50;99.90;;;;;;4993857;28;20118;-53
2022/05/14 03:30:09;;;;;;;5.35;2.40;;;12.40;99.90;;;;;;4994287;28;20034;-46
2022/05/14 03:32:34;;;;;;;2.95;2.20;;;12.40;99.90;;;;;;4994532;28;20034;-45
2022/05/14 03:35:02;;;;;;;7.13;3.17;;;12.40;99.90;;;;;;4994482;28;20057;-47
2022/05/14 03:37:27;;;;;;;8.55;2.80;;;12.40;99.90;;;;;;4993696;28;20029;-46
2022/05/14 03:39:53;;;;;;;4.88;2.88;;;12.40;99.90;;;;;;4976495;28;20113;-46
2022/05/14 03:42:18;;;;;;;6.53;2.88;;;12.40;99.90;;;;;;4993801;28;20430;-45
2022/05/14 03:44:44;;;;;;;5.65;2.50;;;12.30;99.90;;;;;;4993725;28;20026;-49
2022/05/14 03:47:09;;;;;;;3.15;2.30;;;12.30;99.90;;;;;;4993434;28;20081;-49
2022/05/14 03:49:35;;;;;;;6.53;2.25;;;12.30;99.90;;;;;;4993276;28;20137;-46
2022/05/14 03:52:01;;;;;;;9.10;2.25;;;12.30;99.90;;;;;;4993583;28;20022;-45
2022/05/14 03:54:26;;;;;;;5.85;2.42;;;12.20;99.90;;;;;;4976230;28;20106;-46
2022/05/14 03:56:52;;;;;;;9.88;2.15;;;12.30;99.90;;;;;;4993176;28;20058;-45
2022/05/14 03:59:17;;;;;;;6.63;2.33;;;12.20;99.90;;;;;;4993514;28;20418;-47
2022/05/14 04:01:43;;;;;;;5.28;2.38;;;12.30;99.90;;;;;;4993583;28;20129;-49
2022/05/14 04:04:09;;;;;;;9.55;2.45;;;12.20;99.90;;;;;;4993441;28;20069;-47
2022/05/14 04:06:34;;;;;;;11.85;2.50;;;12.30;99.90;;;;;;4992892;28;20022;-45
2022/05/14 04:09:01;;;;;;;7.55;2.75;;;12.30;99.90;;;;;;4993298;28;20073;-46
2022/05/14 04:11:27;;;;;;;4.72;2.17;;;12.30;99.90;;;;;;4993156;28;20022;-46
2022/05/14 04:13:53;;;;;;;3.50;2.38;;;12.20;99.90;;;;;;4993392;28;20022;-49
2022/05/14 04:16:18;;;;;;;10.68;2.00;;;12.20;99.90;;;;;;4993088;28;20034;-44
2022/05/14 04:18:44;;;;;;;4.70;2.00;;;12.20;99.90;;;;;;4992933;28;20105;-49
2022/05/14 04:21:10;;;;;;;7.85;2.42;;;12.20;99.90;;;;;;4975614;28;20046;-47
2022/05/14 04:23:36;;;;;;;4.78;2.10;;;12.20;99.90;;;;;;4993184;28;20021;-47
2022/05/14 04:26:02;;;;;;;4.72;2.58;;;12.20;99.90;;;;;;4992973;28;20034;-48
2022/05/14 04:28:28;;;;;;;5.07;2.05;;;12.30;99.90;;;;;;4991559;28;20030;-47
2022/05/14 04:30:54;;;;;;;3.25;2.10;;;12.40;99.90;;;;;;4992922;28;20058;-51
2022/05/14 04:33:20;;;;;;;4.22;2.10;;;12.40;99.90;;;;;;4992964;28;20029;-48
2022/05/14 04:35:46;;;;;;;5.88;1.83;;;12.40;99.90;;;;;;4975289;28;20029;-50
2022/05/14 04:38:12;;;;;;;5.18;2.47;;;12.30;99.90;;;;;;4991282;28;20030;-46
2022/05/14 04:40:38;;;;;;;3.83;2.35;;;12.40;99.90;;;;;;4991250;28;20026;-45
2022/05/14 04:43:08;;;;;;;5.30;2.30;;;12.40;99.90;;;;;;4991642;28;20449;-50
2022/05/14 04:45:34;;;;;;;6.72;2.00;;;12.40;99.90;;;;;;4992535;28;20054;-48
2022/05/14 04:48:00;;;;;;;5.38;1.90;;;12.50;99.90;;;;;;4975048;28;20038;-47
2022/05/14 04:50:25;;;;;;;3.15;2.08;;;12.60;99.90;;;;;;4992380;28;20430;-46
2022/05/14 04:52:51;;;;;;;2.92;2.20;;;12.60;99.90;;;;;;4992535;28;20039;-47
2022/05/14 04:55:16;;;;;;;5.63;2.33;;;12.80;99.90;;;;;;4992620;28;20459;-47
2022/05/14 04:57:43;;;;;;;4.38;2.20;;;12.90;99.90;;;;;;4974546;28;20089;-48
2022/05/14 05:00:11;;;;;;;2.85;2.10;;;13.00;99.90;;;;;;4992851;28;20068;-46
2022/05/14 05:05:20;;;;;;;3.63;2.08;;;13.30;99.90;;;;;;4992483;28;20029;-46
2022/05/14 05:07:47;;;;;;;6.47;2.22;;;13.40;99.90;;;;;;4992213;28;20031;-47
2022/05/14 05:10:13;;;;;;;2.70;2.08;;;13.60;99.90;;;;;;4992309;28;20018;-45
2022/05/14 05:12:39;;;;;;;2.47;1.88;;;13.70;99.90;;;;;;4992266;28;20490;-47
2022/05/14 05:15:04;;;;;;;5.90;2.63;;;13.80;99.90;;;;;;4992411;28;20490;-46
2022/05/14 05:17:30;;;;;;;5.13;2.42;;;14.20;99.90;;;;;;4990966;28;20117;-46
2022/05/14 05:19:55;;;;;;;6.57;2.22;;;14.60;99.90;;;;;;4992234;28;20088;-45
2022/05/14 05:22:21;;;;;;;7.25;2.25;;;14.60;99.90;;;;;;4974744;28;20168;-44
2022/05/14 05:24:47;;;;;;;6.18;1.92;;;14.60;99.90;;;;;;4992443;28;20442;-46
2022/05/14 05:27:12;;;;;;;2.38;1.70;;;14.60;99.90;;;;;;4992333;28;20019;-47
2022/05/14 05:29:38;;;;;;;8.60;2.53;;;14.70;99.90;;;;;;4993033;28;20026;-46
2022/05/14 05:32:04;;;;;;;2.83;2.00;;;14.60;99.90;;;;;;4992421;28;20490;-45
2022/05/14 05:34:29;;;;;;;2.78;1.90;;;14.60;99.90;;;;;;4992338;28;20033;-45
2022/05/14 05:36:55;;;;;;;4.43;1.60;;;14.60;99.90;;;;;;4991692;28;20023;-48
2022/05/14 05:39:21;;;;;;;4.20;1.80;;;14.60;99.90;;;;;;4992054;28;20109;-45
2022/05/14 05:41:46;;;;;;;7.00;2.03;;;14.70;99.90;;;;;;4991886;28;20034;-48
2022/05/14 05:44:12;;;;;;;4.68;2.00;;;14.70;99.90;;;;;;4992026;28;20506;-41
2022/05/14 05:46:38;;;;;;;8.57;2.17;;;14.80;99.90;;;;;;4990023;28;20019;-50
2022/05/14 05:49:04;;;;;;;5.70;1.88;;;14.90;99.90;;;;;;4997102;28;20041;-52
2022/05/14 05:51:31;;;;;;;3.60;1.85;;;15.00;99.90;;;;;;4997216;28;20041;-43
2022/05/14 05:56:47;;;;;;;4.40;2.30;;;15.30;99.90;;;;;;4991906;28;20038;-47
2022/05/14 05:59:16;;;;;;;3.75;1.75;;;15.30;99.90;;;;;;4992124;28;20031;-50
2022/05/14 06:01:43;;;;;;;3.88;2.72;;;15.40;99.90;;;;;;4990857;28;20042;-48
2022/05/14 06:04:08;;;;;;;4.25;1.80;;;15.50;99.90;;;;;;4991335;28;20181;-43
2022/05/14 06:06:34;;;;;;;2.63;1.73;;;15.60;99.90;;;;;;4991434;28;20026;-51
2022/05/14 06:09:00;;;;;;;4.43;1.80;;;15.60;99.80;;;;;;4990389;28;20026;-48
2022/05/14 06:11:26;;;;;;;4.65;1.88;;;15.60;99.80;;;;;;4991761;28;20520;-46
2022/05/14 06:13:52;;;;;;;7.60;2.47;;;15.70;99.60;;;;;;4991119;28;20089;-46
2022/05/14 06:16:18;;;;;;;5.00;1.80;;;15.70;99.40;;;;;;4991141;28;20035;-45
2022/05/14 06:18:44;;;;;;;3.60;2.22;;;15.80;99.80;;;;;;4991247;28;20077;-46
2022/05/14 06:21:11;;;;;;;7.30;2.85;;;15.90;99.40;;;;;;4991937;28;20545;-51
2022/05/14 06:23:37;;;;;;;4.97;1.90;;;16.00;99.00;;;;;;4991485;28;20409;-47
2022/05/14 06:26:02;;;;;;;3.78;2.08;;;16.00;99.10;;;;;;4991423;28;20102;-44
2022/05/14 06:28:28;;;;;;;6.25;2.35;;;16.10;99.20;;;;;;4992713;28;20040;-50
2022/05/14 06:30:55;;;;;;;4.28;2.28;;;16.20;99.00;;;;;;4994888;28;20453;-49
2022/05/14 06:33:20;;;;;;;6.43;2.50;;;16.30;98.40;;;;;;4995259;28;20030;-45
2022/05/14 06:35:46;;;;;;;7.70;3.28;;;16.50;98.20;;;;;;4995102;28;20395;-47
2022/05/14 06:38:13;;;;;;;6.97;2.00;;;16.60;98.00;;;;;;4994859;28;20486;-49
2022/05/14 06:40:40;;;;;;;6.95;2.38;;;16.60;98.30;;;;;;4994736;28;20033;-50
2022/05/14 06:43:06;;;;;;;6.63;2.20;;;16.70;98.60;;;;;;4922047;23;20516;-45
2022/05/14 06:45:32;;;;;;;6.32;2.80;;;16.70;98.80;;;;;;4879040;28;20107;-46
2022/05/14 06:47:58;;;;;;;6.30;2.70;;;16.70;98.30;;;;;;4895945;28;20116;-46
2022/05/14 06:50:26;;;;;;;5.97;2.33;;;16.90;98.10;;;;;;4895849;29;20130;-49
2022/05/14 06:52:55;;;;;;;12.63;3.65;;;16.90;97.50;;;;;;4895947;29;20029;-46
2022/05/14 06:55:24;;;;;;;6.90;2.30;;;17.10;97.50;;;;;;4893607;29;20033;-48
2022/05/14 06:57:51;;;;;;;5.05;1.80;;;17.50;96.60;;;;;;4895512;29;20424;-47
2022/05/14 07:00:18;;;;;;;4.57;2.35;;;17.90;96.10;;;;;;4894715;29;20524;-49
2022/05/14 07:02:45;;;;;;;6.47;2.45;;;18.20;95.60;;;;;;4894555;28;20033;-48
2022/05/14 07:07:55;;;;;;;6.75;2.30;;;18.50;95.10;;;;;;4895911;29;20176;-49
2022/05/14 07:10:21;;;;;;;5.30;1.98;;;18.70;94.60;;;;;;4895720;28;20562;-47
2022/05/14 07:12:46;;;;;;;8.30;1.92;;;18.80;94.50;;;;;;4960025;28;20581;-46
2022/05/14 07:15:12;;;;;;;5.07;2.65;;;18.80;93.90;;;;;;4910093;28;20050;-49
2022/05/14 07:17:38;;;;;;;8.05;2.50;;;18.80;93.40;;;;;;4903952;29;20047;-46
2022/05/14 07:20:05;;;;;;;8.95;2.88;;;18.60;93.60;;;;;;4906129;29;20519;-49
2022/05/14 07:22:31;;;;;;;6.43;1.92;;;18.40;93.60;;;;;;4895796;28;20029;-47
2022/05/14 07:24:57;;;;;;;7.55;2.10;;;18.30;94.40;;;;;;4909941;28;20080;-47
2022/05/14 07:27:22;;;;;;;8.98;2.10;;;18.30;94.30;;;;;;4903229;28;20060;-49
2022/05/14 07:29:48;;;;;;;8.48;1.65;;;18.40;93.70;;;;;;4914613;29;20020;-49
2022/05/14 07:32:16;;;;;;;8.80;2.50;;;18.60;93.50;;;;;;4900011;29;20021;-47
2022/05/14 07:34:43;;;;;;;9.18;2.10;;;18.70;93.80;;;;;;4894670;29;20508;-46
2022/05/14 07:37:19;;;;;;;9.80;2.95;;;18.90;93.60;;;;;;4894496;29;20033;-48
2022/05/14 07:39:49;;;;;;;5.65;2.25;;;19.10;93.20;;;;;;4893476;29;20029;-47
2022/05/14 07:42:22;;;;;;;3.17;2.13;;;19.20;93.10;;;;;;4894230;28;20091;-47
2022/05/14 07:44:52;;;;;;;5.95;2.38;;;19.30;93.40;;;;;;4896124;29;20044;-47
2022/05/14 07:47:18;;;;;;;5.80;2.25;;;19.50;93.40;;;;;;4895358;28;20052;-46
2022/05/14 07:49:47;;;;;;;6.30;2.00;;;19.80;92.20;;;;;;4895646;29;20048;-47
2022/05/14 07:52:13;;;;;;;7.13;2.25;;;20.40;91.70;;;;;;4914690;29;20408;-47
2022/05/14 07:54:39;;;;;;;6.28;2.45;;;21.10;90.80;;;;;;4907615;29;20110;-49
2022/05/14 07:57:06;;;;;;;6.38;1.70;;;21.50;87.50;;;;;;4895411;29;20493;-48
2022/05/14 07:59:34;;;;;;;5.38;2.05;;;22.10;86.80;;;;;;4895839;29;20021;-50
2022/05/14 08:01:59;;;;;;;11.90;2.00;;;23.20;83.70;;;;;;4894576;29;20047;-47
2022/05/14 08:04:24;;;;;;;5.18;1.65;;;24.20;79.50;;;;;;4895925;29;20029;-47
2022/05/14 08:06:50;;;;;;;5.93;1.85;;;25.10;77.60;;;;;;4909830;28;20034;-48
2022/05/14 08:09:15;;;;;;;2.28;1.38;;;26.10;74.60;;;;;;4904347;29;20516;-47
2022/05/14 08:11:41;;;;;;;6.35;1.80;;;26.90;71.00;;;;;;4902709;28;20501;-46
2022/05/14 08:14:07;;;;;;;5.13;1.67;;;27.90;68.10;;;;;;4909171;28;20047;-46
2022/05/14 08:16:32;;;;;;;5.18;1.90;;;28.50;66.50;;;;;;4915114;29;20036;-47
2022/05/14 08:18:58;;;;;;;5.65;1.98;;;28.70;64.60;;;;;;4901496;29;20377;-49
2022/05/14 08:26:53;;;;;;;4.05;1.80;;;28.80;64.80;;;;;;4894965;29;20152;-48
2022/05/14 08:29:20;;;;;;;4.40;1.40;;;28.90;63.20;;;;;;4895205;29;20041;-47
2022/05/14 08:31:46;;;;;;;6.90;1.88;;;28.60;62.40;;;;;;4912944;29;20452;-48
2022/05/14 08:34:12;;;;;;;3.53;1.33;;;28.30;61.60;;;;;;4907031;29;20041;-46
2022/05/14 08:36:38;;;;;;;4.80;1.80;;;28.10;62.60;;;;;;4895121;29;20033;-48
2022/05/14 08:39:04;;;;;;;8.35;1.60;;;27.50;63.40;;;;;;4894153;28;20067;-47
2022/05/14 08:41:32;;;;;;;7.75;2.20;;;27.10;64.60;;;;;;4893137;28;20036;-50
2022/05/14 08:44:02;;;;;;;7.38;1.77;;;26.90;65.40;;;;;;4893435;29;20072;-48
2022/05/14 08:46:29;;;;;;;4.82;2.05;;;26.60;66.60;;;;;;4911889;29;20132;-50
2022/05/14 08:49:19;;;;;;;5.18;1.90;;;26.10;66.80;;;;;;4908658;29;20075;-48
2022/05/14 08:51:48;;;;;;;2.83;1.58;;;25.70;67.40;;;;;;4894216;29;20023;-50
2022/05/14 08:54:14;;;;;;;8.05;1.58;;;25.50;69.10;;;;;;4894489;29;20501;-48
2022/05/14 08:57:11;;;;;;;5.72;2.00;;;25.30;69.70;;;;;;4894366;29;20086;-48
2022/05/14 08:59:39;;;;;;;7.22;1.58;;;25.30;70.40;;;;;;4888446;29;20048;-49
2022/05/14 09:02:12;;;;;;;6.90;1.92;;;25.30;70.30;;;;;;4893788;29;20028;-46
2022/05/14 09:04:38;;;;;;;5.47;2.15;;;25.10;70.00;;;;;;4909301;28;20072;-50
2022/05/14 09:07:03;;;;;;;6.05;1.70;;;24.70;70.10;;;;;;4912636;29;20032;-48
2022/05/14 09:09:29;;;;;;;7.95;2.00;;;24.30;71.60;;;;;;4916980;29;20044;-51
2022/05/14 09:12:00;;;;;;;10.30;2.53;;;24.30;72.30;;;;;;4899883;29;20059;-47
2022/05/14 09:14:37;;;;;;;8.15;2.90;;;24.50;72.90;;;;;;4894213;29;20119;-52
2022/05/14 09:17:06;;;;;;;7.97;1.55;;;24.60;71.50;;;;;;4896181;28;20037;-49
2022/05/14 09:19:36;;;;;;;7.22;1.70;;;24.50;72.00;;;;;;4879798;29;20029;-47
2022/05/14 09:22:29;;;;;;;8.55;2.20;;;24.30;72.30;;;;;;4893840;29;20410;-47
2022/05/14 09:25:24;;;;;;;5.10;2.00;;;24.20;72.70;;;;;;4899656;29;20033;-49
2022/05/14 09:28:07;;;;;;;8.48;2.15;;;24.30;72.40;;;;;;4905288;28;20569;-45
2022/05/14 09:30:40;;;;;;;2.55;1.52;;;24.10;72.70;;;;;;4892507;29;20135;-46
2022/05/14 09:33:09;;;;;;;5.90;2.78;;;24.00;73.80;;;;;;4912796;29;20550;-49
2022/05/14 09:35:35;;;;;;;5.00;1.52;;;23.80;73.40;;;;;;4903517;29;20046;-46
2022/05/14 09:38:12;;;;;;;5.78;1.75;;;23.40;74.00;;;;;;4891635;29;20021;-49
2022/05/14 09:40:38;;;;;;;6.30;1.65;;;23.50;74.70;;;;;;4891669;29;20027;-54
2022/05/14 09:43:15;;;;;;;6.00;1.55;;;23.60;72.30;;;;;;4892656;28;20125;-50
2022/05/14 09:45:44;;;;;;;6.32;1.80;;;23.60;72.70;;;;;;4893211;29;20107;-47
2022/05/14 09:48:20;;;;;;;10.45;5.20;;;23.80;73.60;;;;;;4893642;29;20386;-49
2022/05/14 09:50:55;;;;;;;12.55;5.88;;;23.90;73.80;;;;;;4893493;29;20528;-45
2022/05/14 09:53:31;;;;;;;9.00;1.77;;;23.90;72.60;;;;;;4893715;29;20124;-48
2022/05/14 09:56:06;;;;;;;5.15;1.70;;;23.70;73.30;;;;;;4893783;28;20043;-46
2022/05/14 09:58:47;;;;;;;4.65;1.45;;;23.60;73.40;;;;;;4893346;29;20033;-47
2022/05/14 10:01:23;;;;;;;6.65;1.75;;;23.40;73.60;;;;;;4893566;29;20033;-45
2022/05/14 10:04:18;;;;;;;2.83;1.13;;;23.30;73.20;;;;;;4895629;29;20319;-50
2022/05/14 10:07:00;;;;;;;7.37;2.67;;;23.20;73.10;;;;;;4896721;29;20107;-45
2022/05/14 10:09:29;;;;;;;5.88;2.05;;;23.20;72.70;;;;;;4896826;29;20032;-47
2022/05/14 10:12:02;;;;;;;3.97;1.45;;;23.20;73.80;;;;;;4895528;28;20041;-46
2022/05/14 10:14:40;;;;;;;3.35;1.65;;;23.10;74.60;;;;;;4896915;29;20033;-48
2022/05/14 10:17:37;;;;;;;6.43;1.80;;;23.00;73.30;;;;;;4896263;29;20515;-49
2022/05/14 10:20:17;;;;;;;5.68;1.65;;;22.90;73.60;;;;;;4896718;29;20163;-47
2022/05/14 10:28:44;;;;;;;5.20;1.50;;;22.60;75.50;;;;;;4896819;29;20087;-47
2022/05/14 10:31:27;;;;;;;11.40;1.85;;;22.40;75.80;;;;;;4896562;29;20056;-47
2022/05/14 10:34:01;;;;;;;7.07;1.92;;;22.40;75.50;;;;;;4895668;29;20028;-45
2022/05/14 10:36:35;;;;;;;2.70;1.58;;;22.30;76.30;;;;;;4895647;29;20087;-45
2022/05/14 10:39:17;;;;;;;6.22;1.65;;;22.40;76.90;;;;;;4896708;28;20055;-50
2022/05/14 10:41:46;;;;;;;5.05;2.00;;;22.40;76.50;;;;;;4896134;29;20029;-53
2022/05/14 10:44:29;;;;;;;6.78;1.77;;;22.30;76.00;;;;;;4896672;29;20484;-48
2022/05/14 10:47:00;;;;;;;7.50;1.50;;;22.30;75.40;;;;;;4896038;29;20036;-49
2022/05/14 10:49:37;;;;;;;4.38;1.85;;;22.10;76.60;;;;;;4895996;29;20512;-51
2022/05/14 10:52:06;;;;;;;8.60;2.28;;;22.00;77.90;;;;;;4896365;29;20055;-50
2022/05/14 10:54:33;;;;;;;9.05;5.75;;;22.00;78.20;;;;;;4896143;29;20573;-46
2022/05/14 10:57:27;;;;;;;5.53;2.13;;;22.10;77.50;;;;;;4895211;29;20401;-50
2022/05/14 11:00:02;;;;;;;3.05;1.70;;;22.10;76.50;;;;;;4895983;29;20528;-48
2022/05/14 11:02:33;;;;;;;5.40;1.40;;;22.10;76.60;;;;;;4896179;29;20099;-51
2022/05/14 11:04:59;;;;;;;7.97;1.33;;;22.10;75.70;;;;;;4895736;29;20045;-49
2022/05/14 11:07:32;;;;;;;3.78;1.80;;;22.20;77.90;;;;;;4909395;28;20033;-47
2022/05/14 11:10:29;;;;;;;4.75;1.80;;;22.30;76.80;;;;;;4908699;29;20419;-47
2022/05/14 11:12:56;;;;;;;3.05;1.38;;;22.30;76.20;;;;;;4898533;29;20366;-49
2022/05/14 11:15:26;;;;;;;9.40;1.52;;;22.30;77.10;;;;;;4914992;28;20373;-49
2022/05/14 11:18:04;;;;;;;5.40;1.73;;;22.40;76.40;;;;;;4904619;29;20035;-45
2022/05/14 11:20:29;;;;;;;6.15;1.77;;;22.40;78.00;;;;;;4895582;29;20032;-50
2022/05/14 11:23:09;;;;;;;6.00;1.83;;;22.40;77.80;;;;;;4895430;29;20029;-47
2022/05/14 11:25:35;;;;;;;5.22;1.75;;;22.40;76.80;;;;;;4894526;29;20029;-48
2022/05/14 11:28:11;;;;;;;4.63;1.20;;;22.50;76.60;;;;;;4900605;29;20102;-45
2022/05/14 11:30:49;;;;;;;7.85;1.58;;;22.40;76.20;;;;;;4896864;28;20033;-48
2022/05/14 11:33:23;;;;;;;4.25;1.35;;;22.50;76.80;;;;;;4909420;29;20028;-52
2022/05/14 11:35:51;;;;;;;3.67;1.23;;;22.50;75.20;;;;;;4894201;29;20098;-45
2022/05/14 11:38:25;;;;;;;6.45;1.40;;;22.60;76.00;;;;;;4894717;29;20033;-47
2022/05/14 11:40:57;;;;;;;3.72;0.90;;;22.60;74.40;;;;;;4895289;28;20051;-49
2022/05/14 11:43:37;;;;;;;2.65;1.08;;;22.60;74.10;;;;;;4895173;29;20040;-44
2022/05/14 11:46:09;;;;;;;5.53;1.35;;;22.60;73.30;;;;;;4894772;29;20106;-45
2022/05/14 11:49:11;;;;;;;3.10;1.40;;;22.60;74.10;;;;;;4895062;29;20032;-46
2022/05/14 11:51:52;;;;;;;2.65;1.10;;;22.60;73.60;;;;;;4901213;29;20083;-48
2022/05/14 11:54:26;;;;;;;5.05;1.30;;;22.60;73.60;;;;;;4895736;29;20028;-46
2022/05/14 11:57:00;;;;;;;12.57;1.23;;;22.60;73.30;;;;;;4896170;29;20036;-47
2022/05/14 11:59:52;;;;;;;7.43;1.35;;;22.60;73.80;;;;;;4895827;29;20527;-50
2022/05/14 12:02:24;;;;;;;2.92;1.00;;;22.60;74.10;;;;;;4895124;29;20082;-45
2022/05/14 12:04:55;;;;;;;7.90;1.40;;;22.60;74.80;;;;;;4876657;29;20033;-49
2022/05/14 12:07:29;;;;;;;3.88;1.30;;;22.60;73.40;;;;;;4859270;29;20116;-49
2022/05/14 12:10:23;;;;;;;5.95;2.08;;;22.60;74.50;;;;;;4859971;29;20021;-45
2022/05/14 12:12:54;;;;;;;4.85;1.25;;;22.70;74.10;;;;;;4884423;29;20025;-48
2022/05/14 12:15:24;;;;;;;5.80;2.25;;;22.80;73.60;;;;;;4895299;29;20074;-48
2022/05/14 12:17:52;;;;;;;2.83;1.38;;;22.80;71.90;;;;;;4894678;29;20468;-46
2022/05/14 12:20:25;;;;;;;4.57;1.67;;;22.80;72.10;;;;;;4894893;29;20033;-50
2022/05/14 12:23:06;;;;;;;5.18;2.13;;;22.80;72.40;;;;;;4894698;29;20036;-43
2022/05/14 12:25:45;;;;;;;2.17;0.93;;;22.90;72.10;;;;;;4893584;28;20519;-47
2022/05/14 12:28:37;;;;;;;5.07;1.25;;;22.90;72.60;;;;;;4894053;29;20120;-46
2022/05/14 12:33:57;;;;;;;6.03;1.10;;;23.00;71.40;;;;;;4894674;29;20056;-44
2022/05/14 12:36:25;;;;;;;3.88;1.40;;;23.00;71.00;;;;;;4894463;29;20049;-47
2022/05/14 12:38:51;;;;;;;3.33;0.90;;;23.00;70.30;;;;;;4894992;29;20419;-45
2022/05/14 12:41:31;;;;;;;2.38;1.00;;;23.00;71.70;;;;;;4894656;29;20021;-45
2022/05/14 12:44:08;;;;;;;7.72;2.08;;;23.10;70.10;;;;;;4894696;29;20107;-45
2022/05/14 12:46:38;;;;;;;4.85;1.08;;;23.10;68.80;;;;;;4894514;29;20028;-47
2022/05/14 12:49:05;;;;;;;6.13;1.08;;;23.00;68.90;;;;;;4894623;29;20067;-48
2022/05/14 12:51:31;;;;;;;3.70;1.20;;;23.00;70.60;;;;;;4894693;29;20041;-46
2022/05/14 12:53:56;;;;;;;2.05;1.00;;;23.00;69.40;;;;;;4894245;29;20034;-47
2022/05/14 12:56:29;;;;;;;2.67;1.13;;;23.00;69.50;;;;;;4893996;29;20037;-44
2022/05/14 12:58:54;;;;;;;2.60;1.10;;;22.90;69.40;;;;;;4894145;28;20112;-48
2022/05/14 13:01:23;;;;;;;1.42;1.15;;;22.90;70.00;;;;;;4894268;29;20107;-46
2022/05/14 13:03:58;;;;;;;8.25;1.42;;;22.90;71.40;;;;;;4892801;28;20386;-47
2022/05/14 13:06:31;;;;;;;5.28;1.38;;;23.00;69.40;;;;;;4894359;29;20552;-44
2022/05/14 13:08:59;;;;;;;4.50;0.93;;;23.00;70.10;;;;;;4893797;28;20055;-45
2022/05/14 13:11:28;;;;;;;3.25;1.13;;;23.10;70.00;;;;;;4894177;29;20079;-47
2022/05/14 13:14:08;;;;;;;3.83;1.20;;;23.10;69.20;;;;;;4893955;28;20075;-44
2022/05/14 13:16:34;;;;;;;1.38;1.00;;;23.10;68.50;;;;;;4961353;23;20415;-46
2022/05/14 13:19:25;;;;;;;9.95;4.57;;;23.00;68.60;;;;;;4972186;28;20031;-47
2022/05/14 13:21:53;;;;;;;5.18;1.90;;;23.00;67.90;;;;;;4936478;28;20039;-46
2022/05/14 13:24:22;;;;;;;12.07;1.83;;;23.10;69.70;;;;;;4951327;29;20031;-47
2022/05/14 13:26:50;;;;;;;2.60;0.93;;;23.10;69.00;;;;;;4952203;28;20034;-48